createdAt,value
2022-12-14T00:01:33.295Z,98336.22
2022-12-14T00:04:00.077Z,98324.66
2022-12-14T00:06:29.284Z,98331.94
2022-12-14T00:08:57.903Z,98333.91
2022-12-14T00:11:25.028Z,98337.19
2022-12-14T00:13:53.715Z,98330.28
2022-12-14T00:16:21.238Z,98334.84
2022-12-14T00:18:52.554Z,98333.97
2022-12-14T00:21:19.702Z,98330.44
2022-12-14T00:23:46.907Z,98333.34
2022-12-14T00:26:14.881Z,98327.00
2022-12-14T00:28:42.378Z,98333.19
2022-12-14T00:31:09.639Z,98327.56
2022-12-14T00:33:36.607Z,98336.00
2022-12-14T00:36:04.174Z,98326.38
2022-12-14T00:38:30.961Z,98320.22
2022-12-14T00:40:58.102Z,98320.97
2022-12-14T00:43:24.865Z,98324.66
2022-12-14T00:45:51.889Z,98320.34
2022-12-14T00:48:19.597Z,98310.50
2022-12-14T00:50:48.799Z,98316.13
2022-12-14T00:53:16.189Z,98321.44
2022-12-14T00:55:44.554Z,98320.72
2022-12-14T00:58:19.228Z,98314.41
2022-12-14T01:00:47.325Z,98310.78
2022-12-14T01:03:14.161Z,98302.81
2022-12-14T01:05:41.420Z,98305.47
2022-12-14T01:08:08.190Z,98299.31
2022-12-14T01:10:38.707Z,98302.94
2022-12-14T01:13:05.420Z,98293.28
2022-12-14T01:15:34.985Z,98293.44
2022-12-14T01:18:01.715Z,98291.56
2022-12-14T01:20:28.751Z,98289.16
2022-12-14T01:22:56.253Z,98287.19
2022-12-14T01:25:23.344Z,98281.81
2022-12-14T01:27:50.170Z,98283.84
2022-12-14T01:30:19.307Z,98279.28
2022-12-14T01:32:46.771Z,98277.50
2022-12-14T01:35:13.891Z,98280.22
2022-12-14T01:37:40.667Z,98279.38
2022-12-14T01:40:08.485Z,98277.78
2022-12-14T01:42:37.798Z,98281.94
2022-12-14T01:45:05.736Z,98278.75
2022-12-14T01:47:41.758Z,98276.94
2022-12-14T01:50:40.075Z,98276.00
2022-12-14T01:53:08.804Z,98272.31
2022-12-14T01:55:48.734Z,98267.25
2022-12-14T01:58:19.074Z,98272.31
2022-12-14T02:00:46.054Z,98270.75
2022-12-14T02:03:21.756Z,98270.06
2022-12-14T02:05:55.754Z,98270.06
2022-12-14T02:08:22.848Z,98268.47
2022-12-14T02:10:50.162Z,98275.44
2022-12-14T02:13:25.989Z,98269.28
2022-12-14T02:15:53.413Z,98264.91
2022-12-14T02:18:25.643Z,98263.97
2022-12-14T02:20:55.567Z,98256.16
2022-12-14T02:23:53.140Z,98254.41
2022-12-14T02:26:43.482Z,98269.38
2022-12-14T02:29:19.438Z,98257.16
2022-12-14T02:32:31.306Z,98262.47
2022-12-14T02:35:09.967Z,98249.16
2022-12-14T02:37:45.857Z,98243.31
2022-12-14T02:40:34.846Z,98239.38
2022-12-14T02:43:06.295Z,98237.84
2022-12-14T02:45:47.627Z,98240.44
2022-12-14T02:48:22.742Z,98236.91
2022-12-14T02:51:19.943Z,98239.56
2022-12-14T02:54:38.798Z,98229.78
2022-12-14T02:57:13.895Z,98229.09
2022-12-14T02:59:40.822Z,98225.72
2022-12-14T03:02:07.658Z,98220.22
2022-12-14T03:04:45.749Z,98207.91
2022-12-14T03:07:36.845Z,98215.03
2022-12-14T03:10:09.472Z,98217.75
2022-12-14T03:12:37.829Z,98210.63
2022-12-14T03:15:05.438Z,98218.69
2022-12-14T03:17:32.157Z,98208.13
2022-12-14T03:20:12.992Z,98204.53
2022-12-14T03:22:42.957Z,98202.88
2022-12-14T03:25:14.442Z,98204.47
2022-12-14T03:27:44.698Z,98199.31
2022-12-14T03:30:13.791Z,98197.50
2022-12-14T03:32:59.827Z,98199.59
2022-12-14T03:35:32.766Z,98196.94
2022-12-14T03:38:03.845Z,98200.38
2022-12-14T03:40:33.873Z,98197.88
2022-12-14T03:43:26.168Z,98198.59
2022-12-14T03:46:02.099Z,98204.78
2022-12-14T03:48:41.662Z,98199.47
2022-12-14T03:51:36.730Z,98200.38
2022-12-14T03:54:33.040Z,98207.56
2022-12-14T03:57:07.068Z,98208.50
2022-12-14T04:00:06.386Z,98206.03
2022-12-14T04:02:40.841Z,98205.94
2022-12-14T04:05:10.398Z,98206.88
2022-12-14T04:07:44.077Z,98198.81
2022-12-14T04:10:35.252Z,98197.09
2022-12-14T04:13:27.319Z,98196.31
2022-12-14T04:16:13.070Z,98190.22
2022-12-14T04:19:01.444Z,98185.84
2022-12-14T04:21:32.566Z,98179.53
2022-12-14T04:24:20.995Z,98175.22
2022-12-14T04:26:56.925Z,98171.63
2022-12-14T04:29:47.307Z,98164.03
2022-12-14T04:32:35.982Z,98163.88
2022-12-14T04:35:24.494Z,98162.00
2022-12-14T04:37:56.195Z,98165.78
2022-12-14T04:40:34.664Z,98159.69
2022-12-14T04:43:10.439Z,98149.28
2022-12-14T04:45:46.921Z,98152.31
2022-12-14T04:48:27.603Z,98150.34
2022-12-14T04:51:06.368Z,98153.34
2022-12-14T04:53:33.088Z,98147.88
2022-12-14T04:56:09.428Z,98144.91
2022-12-14T04:58:36.244Z,98141.38
2022-12-14T05:01:12.669Z,98133.31
2022-12-14T05:04:12.475Z,98122.41
2022-12-14T05:07:02.980Z,98121.47
2022-12-14T05:09:32.176Z,98117.22
2022-12-14T05:12:07.647Z,98117.56
2022-12-14T05:15:05.683Z,98109.59
2022-12-14T05:17:36.370Z,98107.78
2022-12-14T05:20:03.429Z,98105.06
2022-12-14T05:22:30.452Z,98105.97
2022-12-14T05:24:57.388Z,98105.97
2022-12-14T05:27:24.430Z,98111.28
2022-12-14T05:29:51.128Z,98109.34
2022-12-14T05:32:18.223Z,98118.47
2022-12-14T05:34:44.931Z,98118.78
2022-12-14T05:37:18.002Z,98112.63
2022-12-14T05:39:45.258Z,98116.16
2022-12-14T05:42:12.303Z,98109.97
2022-12-14T05:44:39.114Z,98113.66
2022-12-14T05:47:06.152Z,98102.81
2022-12-14T05:49:32.890Z,98098.16
2022-12-14T05:51:59.998Z,98098.97
2022-12-14T05:54:26.761Z,98106.38
2022-12-14T05:56:53.794Z,98114.09
2022-12-14T05:59:20.550Z,98109.50
2022-12-14T06:01:49.767Z,98103.56
2022-12-14T06:04:17.915Z,98098.97
2022-12-14T06:06:44.991Z,98099.03
2022-12-14T06:09:13.267Z,98099.19
2022-12-14T06:11:41.092Z,98102.69
2022-12-14T06:14:08.174Z,98095.50
2022-12-14T06:16:35.460Z,98098.72
2022-12-14T06:19:03.527Z,98097.03
2022-12-14T06:21:32.795Z,98098.97
2022-12-14T06:23:59.606Z,98097.03
2022-12-14T06:26:27.203Z,98093.00
2022-12-14T06:28:53.954Z,98085.38
2022-12-14T06:31:22.679Z,98083.56
2022-12-14T06:33:49.799Z,98082.56
2022-12-14T06:36:33.838Z,98071.88
2022-12-14T06:39:02.913Z,98079.03
2022-12-14T06:41:29.961Z,98078.81
2022-12-14T06:43:57.234Z,98078.88
2022-12-14T06:46:24.521Z,98077.00
2022-12-14T06:48:52.293Z,98065.75
2022-12-14T06:51:19.994Z,98058.34
2022-12-14T06:53:46.921Z,98062.81
2022-12-14T06:56:17.607Z,98067.34
2022-12-14T06:58:44.569Z,98058.25
2022-12-14T07:01:13.431Z,98056.66
2022-12-14T07:03:40.479Z,98058.66
2022-12-14T07:06:08.294Z,98047.44
2022-12-14T07:08:36.762Z,98040.53
2022-12-14T07:11:05.421Z,98048.34
2022-12-14T07:13:32.181Z,98042.28
2022-12-14T07:15:59.687Z,98035.72
2022-12-14T07:18:26.639Z,98038.03
2022-12-14T07:20:57.343Z,98030.56
2022-12-14T07:23:27.876Z,98030.69
2022-12-14T07:26:04.694Z,98025.09
2022-12-14T07:28:31.787Z,98030.06
2022-12-14T07:30:59.378Z,98025.78
2022-12-14T07:33:26.593Z,98022.91
2022-12-14T07:36:11.175Z,98032.50
2022-12-14T07:38:38.795Z,98029.84
2022-12-14T07:41:15.523Z,98040.25
2022-12-14T07:43:46.304Z,98045.47
2022-12-14T07:46:18.973Z,98042.13
2022-12-14T07:48:46.994Z,98036.72
2022-12-14T07:51:15.545Z,98037.72
2022-12-14T07:53:42.432Z,98038.06
2022-12-14T07:56:19.969Z,98032.91
2022-12-14T07:58:46.805Z,98032.66
2022-12-14T08:01:21.310Z,98038.97
2022-12-14T08:03:55.917Z,98033.75
2022-12-14T08:06:23.969Z,98034.09
2022-12-14T08:08:51.521Z,98042.75
2022-12-14T08:11:18.788Z,98044.50
2022-12-14T08:13:46.918Z,98038.28
2022-12-14T08:16:15.440Z,98041.78
2022-12-14T08:18:42.752Z,98039.38
2022-12-14T08:21:10.780Z,98040.88
2022-12-14T08:23:37.689Z,98035.56
2022-12-14T08:26:06.098Z,98033.13
2022-12-14T08:28:34.927Z,98033.06
2022-12-14T08:31:06.446Z,98026.00
2022-12-14T08:33:34.488Z,98025.25
2022-12-14T08:36:06.125Z,98042.47
2022-12-14T08:38:32.850Z,98045.06
2022-12-14T08:41:04.330Z,98038.91
2022-12-14T08:43:31.501Z,98042.75
2022-12-14T08:45:59.016Z,98041.78
2022-12-14T08:48:25.851Z,98023.81
2022-12-14T08:50:53.047Z,98027.81
2022-12-14T08:53:20.093Z,98030.41
2022-12-14T08:55:47.100Z,98029.47
2022-12-14T08:58:14.054Z,98023.47
2022-12-14T09:00:41.150Z,98013.84
2022-12-14T09:03:08.058Z,98025.94
2022-12-14T09:05:35.499Z,98016.50
2022-12-14T09:08:02.282Z,98023.34
2022-12-14T09:10:29.352Z,98024.31
2022-12-14T09:12:56.284Z,98024.38
2022-12-14T09:15:23.342Z,98023.91
2022-12-14T09:17:51.044Z,98018.22
2022-12-14T09:20:19.036Z,98006.72
2022-12-14T09:22:46.208Z,97999.66
2022-12-14T09:25:13.802Z,97998.53
2022-12-14T09:27:40.542Z,98000.72
2022-12-14T09:30:08.046Z,97995.13
2022-12-14T09:32:34.794Z,98000.31
2022-12-14T09:35:01.826Z,97996.91
2022-12-14T09:37:28.655Z,97990.25
2022-12-14T09:39:55.748Z,97987.94
2022-12-14T09:42:53.327Z,97990.03
2022-12-14T09:45:32.571Z,97992.16
2022-12-14T09:48:15.359Z,97985.88
2022-12-14T09:50:42.355Z,97986.66
2022-12-14T09:53:11.998Z,97995.34
2022-12-14T09:55:59.633Z,97993.53
2022-12-14T09:58:28.547Z,97986.06
2022-12-14T10:01:22.325Z,97979.56
2022-12-14T10:03:49.924Z,97982.06
2022-12-14T10:06:44.956Z,97967.78
2022-12-14T10:09:27.603Z,97958.25
2022-12-14T10:12:21.007Z,97951.00
2022-12-14T10:15:05.680Z,97949.91
2022-12-14T10:17:40.191Z,97936.88
2022-12-14T10:20:19.046Z,97940.16
2022-12-14T10:22:47.087Z,97938.22
2022-12-14T10:25:24.936Z,97926.13
2022-12-14T10:28:12.938Z,97926.69
2022-12-14T10:30:43.065Z,97923.84
2022-12-14T10:33:23.325Z,97932.13
2022-12-14T10:35:51.396Z,97921.50
2022-12-14T10:38:26.417Z,97919.09
2022-12-14T10:41:12.245Z,97916.97
2022-12-14T10:43:58.149Z,97919.88
2022-12-14T10:46:56.039Z,97911.59
2022-12-14T10:49:40.332Z,97901.91
2022-12-14T10:52:14.905Z,97902.59
2022-12-14T10:54:48.158Z,97895.41
2022-12-14T10:57:22.511Z,97890.75
2022-12-14T11:00:07.354Z,97888.94
2022-12-14T11:02:38.975Z,97875.72
2022-12-14T11:05:57.612Z,97858.00
2022-12-14T11:08:39.447Z,97856.63
2022-12-14T11:11:21.013Z,97844.72
2022-12-14T11:14:08.007Z,97847.78
2022-12-14T11:16:37.589Z,97835.00
2022-12-14T11:19:06.467Z,97836.50
2022-12-14T11:21:37.652Z,97829.59
2022-12-14T11:24:04.936Z,97831.31
2022-12-14T11:26:39.734Z,97814.91
2022-12-14T11:29:07.510Z,97812.34
2022-12-14T11:31:39.418Z,97810.06
2022-12-14T11:34:07.383Z,97802.34
2022-12-14T11:36:38.226Z,97805.19
2022-12-14T11:39:14.591Z,97792.84
2022-12-14T11:42:00.883Z,97789.88
2022-12-14T11:44:33.242Z,97780.59
2022-12-14T11:47:00.445Z,97771.50
2022-12-14T11:49:40.190Z,97773.38
2022-12-14T11:52:11.139Z,97769.13
2022-12-14T11:54:42.354Z,97762.94
2022-12-14T11:57:37.079Z,97761.94
2022-12-14T12:00:23.840Z,97753.63
2022-12-14T12:03:02.178Z,97744.34
2022-12-14T12:05:31.466Z,97742.47
2022-12-14T12:07:58.954Z,97740.47
2022-12-14T12:10:37.558Z,97730.78
2022-12-14T12:13:05.719Z,97726.34
2022-12-14T12:15:40.828Z,97714.44
2022-12-14T12:18:13.647Z,97718.63
2022-12-14T12:20:44.502Z,97711.84
2022-12-14T12:23:17.767Z,97712.22
2022-12-14T12:25:45.043Z,97703.00
2022-12-14T12:28:15.391Z,97703.28
2022-12-14T12:30:43.729Z,97697.84
2022-12-14T12:33:31.715Z,97687.84
2022-12-14T12:36:02.081Z,97681.69
2022-12-14T12:38:49.961Z,97665.78
2022-12-14T12:41:45.761Z,97679.34
2022-12-14T12:44:35.026Z,97668.97
2022-12-14T12:47:32.176Z,97658.25
2022-12-14T12:50:10.637Z,97658.78
2022-12-14T12:53:03.963Z,97648.94
2022-12-14T12:55:51.930Z,97643.34
2022-12-14T12:58:38.017Z,97647.38
2022-12-14T13:01:17.886Z,97636.34
2022-12-14T13:03:46.051Z,97633.94
2022-12-14T13:06:53.798Z,97636.09
2022-12-14T13:09:31.803Z,97637.88
2022-12-14T13:11:58.830Z,97640.38
2022-12-14T13:14:38.663Z,97637.78
2022-12-14T13:17:06.659Z,97635.81
2022-12-14T13:19:51.620Z,97625.75
2022-12-14T13:22:29.081Z,97612.72
2022-12-14T13:24:59.741Z,97590.81
2022-12-14T13:27:40.758Z,97575.50
2022-12-14T13:30:16.567Z,97573.19
2022-12-14T13:33:23.207Z,97569.59
2022-12-14T13:36:14.592Z,97565.75
2022-12-14T13:38:53.699Z,97560.34
2022-12-14T13:41:41.756Z,97558.22
2022-12-14T13:44:31.075Z,97555.22
2022-12-14T13:47:05.827Z,97548.28
2022-12-14T13:49:33.041Z,97533.16
2022-12-14T13:51:59.834Z,97532.69
2022-12-14T13:54:29.668Z,97535.97
2022-12-14T13:57:11.491Z,97532.28
2022-12-14T13:59:42.376Z,97523.13
2022-12-14T14:02:27.905Z,97518.09
2022-12-14T14:05:20.220Z,97518.09
2022-12-14T14:07:57.031Z,97487.31
2022-12-14T14:10:42.311Z,97472.41
2022-12-14T14:13:27.567Z,97487.91
2022-12-14T14:16:27.351Z,97500.16
2022-12-14T14:19:11.386Z,97512.66
2022-12-14T14:22:14.040Z,97511.59
2022-12-14T14:25:00.697Z,97520.97
2022-12-14T14:28:03.496Z,97516.44
2022-12-14T14:30:45.928Z,97508.53
2022-12-14T14:33:46.818Z,97499.22
2022-12-14T14:36:25.394Z,97499.72
2022-12-14T14:38:54.308Z,97492.19
2022-12-14T14:41:23.336Z,97491.38
2022-12-14T14:44:01.405Z,97465.44
2022-12-14T14:46:38.336Z,97469.72
2022-12-14T14:49:05.709Z,97459.25
2022-12-14T14:51:36.197Z,97468.81
2022-12-14T14:55:03.554Z,97466.09
2022-12-14T14:57:27.186Z,97464.81
2022-12-14T14:59:54.718Z,97450.09
2022-12-14T15:02:30.826Z,97449.84
2022-12-14T15:05:17.422Z,97435.38
2022-12-14T15:07:44.976Z,97438.13
2022-12-14T15:10:37.775Z,97435.50
2022-12-14T15:13:14.829Z,97439.75
2022-12-14T15:15:46.150Z,97436.66
2022-12-14T15:18:25.153Z,97435.06
2022-12-14T15:20:59.503Z,97436.59
2022-12-14T15:23:30.288Z,97440.97
2022-12-14T15:25:59.289Z,97441.94
2022-12-14T15:28:26.381Z,97431.06
2022-12-14T15:30:55.129Z,97434.72
2022-12-14T15:33:40.022Z,97434.59
2022-12-14T15:36:10.869Z,97425.44
2022-12-14T15:38:38.000Z,97443.94
2022-12-14T15:41:15.904Z,97447.56
2022-12-14T15:43:44.788Z,97434.84
2022-12-14T15:46:19.544Z,97448.69
2022-12-14T15:48:46.556Z,97438.75
2022-12-14T15:51:16.764Z,97435.13
2022-12-14T15:53:50.301Z,97436.66
2022-12-14T15:56:37.954Z,97432.94
2022-12-14T15:59:17.885Z,97440.91
2022-12-14T16:01:54.777Z,97448.78
2022-12-14T16:04:23.090Z,97453.06
2022-12-14T16:07:15.030Z,97445.94
2022-12-14T16:09:44.258Z,97444.25
2022-12-14T16:12:21.672Z,97447.75
2022-12-14T16:14:54.345Z,97437.06
2022-12-14T16:17:33.078Z,97442.19
2022-12-14T16:20:01.915Z,97439.34
2022-12-14T16:22:30.093Z,97445.38
2022-12-14T16:25:16.914Z,97441.19
2022-12-14T16:27:50.018Z,97432.28
2022-12-14T16:30:31.251Z,97424.06
2022-12-14T16:33:14.627Z,97425.56
2022-12-14T16:35:41.451Z,97421.41
2022-12-14T16:38:12.254Z,97420.75
2022-12-14T16:40:52.847Z,97414.09
2022-12-14T16:43:39.990Z,97423.97
2022-12-14T16:46:09.713Z,97424.31
2022-12-14T16:48:41.644Z,97422.16
2022-12-14T16:51:32.995Z,97425.75
2022-12-14T16:54:06.175Z,97426.72
2022-12-14T16:56:33.482Z,97425.56
2022-12-14T16:59:06.090Z,97423.00
2022-12-14T17:01:45.985Z,97420.16
2022-12-14T17:04:13.727Z,97408.59
2022-12-14T17:06:56.738Z,97413.53
2022-12-14T17:09:25.261Z,97403.56
2022-12-14T17:11:53.211Z,97407.25
2022-12-14T17:14:20.310Z,97395.50
2022-12-14T17:16:48.046Z,97401.00
2022-12-14T17:19:23.352Z,97399.00
2022-12-14T17:21:50.376Z,97393.59
2022-12-14T17:24:18.770Z,97393.88
2022-12-14T17:26:45.866Z,97396.53
2022-12-14T17:29:24.532Z,97396.25
2022-12-14T17:31:54.611Z,97396.72
2022-12-14T17:34:23.129Z,97401.84
2022-12-14T17:36:50.171Z,97394.53
2022-12-14T17:39:17.243Z,97396.16
2022-12-14T17:41:45.019Z,97397.97
2022-12-14T17:44:16.558Z,97388.38
2022-12-14T17:46:43.704Z,97398.13
2022-12-14T17:49:14.608Z,97394.06
2022-12-14T17:51:42.533Z,97382.00
2022-12-14T17:54:17.669Z,97365.78
2022-12-14T17:56:44.789Z,97362.91
2022-12-14T17:59:12.349Z,97360.78
2022-12-14T18:01:40.102Z,97350.47
2022-12-14T18:04:08.193Z,97341.28
2022-12-14T18:06:35.388Z,97340.81
2022-12-14T18:09:05.152Z,97329.78
2022-12-14T18:11:32.141Z,97328.66
2022-12-14T18:13:59.436Z,97331.97
2022-12-14T18:16:28.808Z,97331.50
2022-12-14T18:18:56.380Z,97333.47
2022-12-14T18:21:25.169Z,97340.59
2022-12-14T18:23:52.491Z,97351.13
2022-12-14T18:26:22.496Z,97343.69
2022-12-14T18:28:53.767Z,97334.97
2022-12-14T18:31:23.728Z,97326.03
2022-12-14T18:33:50.758Z,97335.63
2022-12-14T18:36:19.910Z,97332.50
2022-12-14T18:38:49.511Z,97334.19
2022-12-14T18:41:17.923Z,97344.63
2022-12-14T18:43:45.223Z,97342.63
2022-12-14T18:46:12.351Z,97337.09
2022-12-14T18:48:40.594Z,97344.88
2022-12-14T18:51:07.524Z,97328.94
2022-12-14T18:53:34.901Z,97315.84
2022-12-14T18:56:02.185Z,97295.66
2022-12-14T18:58:29.335Z,97299.47
2022-12-14T19:00:57.753Z,97304.56
2022-12-14T19:03:25.165Z,97300.75
2022-12-14T19:05:52.263Z,97304.09
2022-12-14T19:08:19.343Z,97308.25
2022-12-14T19:10:47.953Z,97297.81
2022-12-14T19:13:23.262Z,97304.53
2022-12-14T19:15:52.088Z,97302.00
2022-12-14T19:18:19.214Z,97304.41
2022-12-14T19:20:45.960Z,97306.03
2022-12-14T19:23:17.423Z,97310.50
2022-12-14T19:25:47.080Z,97301.56
2022-12-14T19:31:01.657Z,97292.75
2022-12-14T19:33:29.400Z,97298.81
2022-12-14T19:35:56.425Z,97293.59
2022-12-14T19:38:23.494Z,97291.03
2022-12-14T19:41:01.026Z,97286.78
2022-12-14T19:43:29.655Z,97292.66
2022-12-14T19:45:56.914Z,97283.59
2022-12-14T19:48:24.145Z,97281.47
2022-12-14T19:50:50.916Z,97291.03
2022-12-14T19:53:23.224Z,97291.13
2022-12-14T19:55:52.394Z,97285.94
2022-12-14T19:58:22.188Z,97290.94
2022-12-14T20:00:49.960Z,97292.44
2022-12-14T20:03:17.561Z,97295.00
2022-12-14T20:05:54.950Z,97291.19
2022-12-14T20:08:22.741Z,97292.78
2022-12-14T20:10:49.639Z,97290.13
2022-12-14T20:13:16.645Z,97296.50
2022-12-14T20:15:53.966Z,97294.47
2022-12-14T20:18:21.765Z,97297.88
2022-12-14T20:20:49.626Z,97308.53
2022-12-14T20:23:18.292Z,97314.41
2022-12-14T20:25:45.073Z,97312.06
2022-12-14T20:28:12.170Z,97307.56
2022-12-14T20:30:45.931Z,97317.25
2022-12-14T20:33:13.314Z,97314.50
2022-12-14T20:35:40.198Z,97315.25
2022-12-14T20:38:07.243Z,97323.13
2022-12-14T20:40:38.468Z,97316.19
2022-12-14T20:43:05.991Z,97312.41
2022-12-14T20:45:37.653Z,97317.72
2022-12-14T20:48:05.249Z,97317.50
2022-12-14T20:50:31.973Z,97321.84
2022-12-14T20:52:59.050Z,97328.25
2022-12-14T20:55:25.770Z,97320.47
2022-12-14T20:57:52.826Z,97329.00
2022-12-14T21:00:19.550Z,97325.59
2022-12-14T21:02:46.787Z,97325.50
2022-12-14T21:05:13.623Z,97321.91
2022-12-14T21:07:40.903Z,97323.31
2022-12-14T21:10:08.142Z,97315.34
2022-12-14T21:12:35.323Z,97311.41
2022-12-14T21:15:02.225Z,97315.19
2022-12-14T21:17:29.933Z,97318.06
2022-12-14T21:19:57.349Z,97311.25
2022-12-14T21:22:26.138Z,97320.28
2022-12-14T21:25:03.597Z,97322.53
2022-12-14T21:27:32.393Z,97330.41
2022-12-14T21:30:00.441Z,97320.53
2022-12-14T21:32:27.926Z,97316.03
2022-12-14T21:34:54.706Z,97312.84
2022-12-14T21:37:22.093Z,97317.97
2022-12-14T21:39:54.281Z,97321.59
2022-12-14T21:42:25.701Z,97321.69
2022-12-14T21:44:52.955Z,97326.78
2022-12-14T21:47:21.918Z,97325.94
2022-12-14T21:49:49.108Z,97315.09
2022-12-14T21:52:18.298Z,97324.78
2022-12-14T21:54:45.099Z,97304.38
2022-12-14T21:57:34.507Z,97311.81
2022-12-14T22:00:01.695Z,97305.31
2022-12-14T22:02:29.159Z,97321.38
2022-12-14T22:04:56.378Z,97323.09
2022-12-14T22:07:25.590Z,97325.09
2022-12-14T22:09:52.350Z,97332.00
2022-12-14T22:12:19.459Z,97326.78
2022-12-14T22:14:46.211Z,97333.72
2022-12-14T22:17:13.696Z,97338.63
2022-12-14T22:19:40.491Z,97345.00
2022-12-14T22:22:07.570Z,97341.50
2022-12-14T22:24:34.311Z,97346.72
2022-12-14T22:27:01.827Z,97330.75
2022-12-14T22:29:28.844Z,97338.53
2022-12-14T22:31:56.001Z,97326.38
2022-12-14T22:34:23.200Z,97329.78
2022-12-14T22:36:50.787Z,97329.69
2022-12-14T22:39:17.798Z,97331.50
2022-12-14T22:41:45.120Z,97326.19
2022-12-14T22:44:12.805Z,97340.22
2022-12-14T22:46:40.203Z,97327.91
2022-12-14T22:49:06.965Z,97331.19
2022-12-14T22:51:34.019Z,97327.66
2022-12-14T22:54:00.853Z,97324.06
2022-12-14T22:56:38.371Z,97323.13
2022-12-14T22:59:07.836Z,97320.66
2022-12-14T23:01:35.064Z,97317.78
2022-12-14T23:04:01.968Z,97321.50
2022-12-14T23:06:29.082Z,97326.81
2022-12-14T23:09:14.475Z,97332.78
2022-12-14T23:12:00.111Z,97328.44
2022-12-14T23:14:45.582Z,97331.19
2022-12-14T23:17:31.018Z,97331.19
2022-12-14T23:20:16.465Z,97332.69
2022-12-14T23:23:02.220Z,97337.25
2022-12-14T23:25:47.256Z,97339.81
2022-12-14T23:28:32.920Z,97349.63
2022-12-14T23:31:18.324Z,97345.13
2022-12-14T23:34:04.079Z,97343.97
2022-12-14T23:36:49.468Z,97354.84
2022-12-14T23:39:34.989Z,97357.69
2022-12-14T23:42:20.463Z,97358.22
2022-12-14T23:45:06.130Z,97363.84
2022-12-14T23:47:51.396Z,97364.31
2022-12-14T23:50:36.840Z,97366.00
2022-12-14T23:53:25.655Z,97364.31
2022-12-14T23:56:11.460Z,97365.25
2022-12-14T23:58:56.831Z,97358.13
